createdAt,value
2023-02-26T00:00:14.353Z,34.68
2023-02-26T00:02:42.162Z,34.55
2023-02-26T00:05:08.932Z,34.51
2023-02-26T00:07:35.409Z,34.46
2023-02-26T00:10:02.251Z,34.28
2023-02-26T00:12:29.568Z,34.23
2023-02-26T00:14:56.423Z,34.05
2023-02-26T00:17:50.071Z,34.17
2023-02-26T00:20:16.856Z,33.57
2023-02-26T00:22:43.700Z,33.74
2023-02-26T00:25:10.321Z,33.71
2023-02-26T00:27:36.749Z,33.51
2023-02-26T00:30:08.875Z,33.50
2023-02-26T00:32:35.235Z,33.59
2023-02-26T00:35:01.910Z,33.73
2023-02-26T00:37:56.670Z,33.65
2023-02-26T00:40:40.396Z,33.53
2023-02-26T00:43:09.636Z,33.18
2023-02-26T00:45:38.544Z,33.46
2023-02-26T00:48:22.674Z,33.33
2023-02-26T00:51:20.822Z,33.58
2023-02-26T00:53:58.678Z,33.19
2023-02-26T00:56:24.944Z,33.15
2023-02-26T00:58:51.252Z,33.05
2023-02-26T01:01:17.336Z,33.39
2023-02-26T01:03:43.620Z,33.30
2023-02-26T01:06:12.631Z,33.17
2023-02-26T01:08:52.842Z,33.13
2023-02-26T01:11:19.121Z,33.12
2023-02-26T01:13:45.557Z,32.58
2023-02-26T01:16:20.216Z,32.57
2023-02-26T01:18:53.209Z,32.82
2023-02-26T01:21:30.663Z,32.63
2023-02-26T01:23:56.913Z,32.86
2023-02-26T01:26:26.957Z,32.59
2023-02-26T01:28:53.683Z,32.76
2023-02-26T01:31:28.636Z,32.82
2023-02-26T01:34:00.670Z,33.00
2023-02-26T01:36:32.946Z,33.24
2023-02-26T01:39:13.626Z,33.18
2023-02-26T01:41:54.390Z,33.27
2023-02-26T01:44:26.032Z,32.79
2023-02-26T01:47:04.641Z,32.71
2023-02-26T01:49:32.928Z,32.85
2023-02-26T01:52:05.166Z,33.27
2023-02-26T01:54:36.287Z,33.24
2023-02-26T01:57:16.546Z,33.41
2023-02-26T01:59:45.834Z,33.29
2023-02-26T02:02:16.832Z,33.09
2023-02-26T02:04:43.862Z,33.12
2023-02-26T02:07:10.425Z,33.25
2023-02-26T02:09:37.279Z,32.99
2023-02-26T02:12:09.441Z,33.25
2023-02-26T02:14:35.442Z,33.27
2023-02-26T02:17:24.042Z,33.32
2023-02-26T02:20:10.659Z,33.17
2023-02-26T02:22:59.887Z,33.15
2023-02-26T02:26:02.703Z,32.62
2023-02-26T02:28:55.443Z,32.52
2023-02-26T02:31:48.011Z,32.37
2023-02-26T02:34:40.522Z,32.58
2023-02-26T02:37:16.719Z,32.34
2023-02-26T02:39:49.212Z,32.45
2023-02-26T02:42:31.339Z,32.58
2023-02-26T02:45:20.629Z,32.29
2023-02-26T02:47:58.555Z,32.33
2023-02-26T02:50:37.324Z,32.19
2023-02-26T02:53:23.868Z,32.20
2023-02-26T02:55:57.216Z,32.18
2023-02-26T02:58:30.092Z,32.20
2023-02-26T03:01:00.746Z,32.23
2023-02-26T03:03:44.569Z,32.36
2023-02-26T03:06:10.855Z,32.24
2023-02-26T03:08:40.797Z,32.28
2023-02-26T03:11:08.823Z,32.18
2023-02-26T03:13:37.035Z,32.20
2023-02-26T03:16:11.870Z,32.16
2023-02-26T03:19:04.102Z,32.15
2023-02-26T03:21:43.829Z,32.07
2023-02-26T03:24:24.512Z,31.89
2023-02-26T03:27:04.099Z,32.06
2023-02-26T03:29:41.828Z,32.04
2023-02-26T03:32:15.505Z,31.78
2023-02-26T03:34:48.128Z,32.10
2023-02-26T03:37:20.592Z,32.00
2023-02-26T03:39:48.247Z,32.24
2023-02-26T03:42:27.507Z,32.20
2023-02-26T03:45:17.497Z,32.10
2023-02-26T03:47:48.803Z,32.07
2023-02-26T03:50:19.965Z,32.26
2023-02-26T03:53:00.686Z,32.30
2023-02-26T03:55:52.231Z,31.97
2023-02-26T03:58:54.354Z,32.20
2023-02-26T04:01:43.009Z,32.55
2023-02-26T04:04:21.317Z,32.52
2023-02-26T04:06:47.982Z,32.22
2023-02-26T04:09:16.074Z,32.21
2023-02-26T04:11:43.261Z,32.15
2023-02-26T04:14:10.472Z,32.22
2023-02-26T04:16:38.588Z,32.29
2023-02-26T04:19:04.673Z,32.44
2023-02-26T04:21:30.946Z,32.45
2023-02-26T04:23:57.148Z,32.45
2023-02-26T04:26:23.930Z,32.46
2023-02-26T04:28:50.154Z,32.48
2023-02-26T04:31:16.723Z,32.22
2023-02-26T04:33:43.432Z,32.42
2023-02-26T04:36:10.067Z,32.44
2023-02-26T04:38:36.320Z,32.62
2023-02-26T04:41:03.810Z,32.86
2023-02-26T04:43:29.920Z,32.64
2023-02-26T04:46:21.959Z,31.93
2023-02-26T04:48:48.140Z,32.20
2023-02-26T04:51:14.282Z,32.26
2023-02-26T04:53:40.819Z,32.19
2023-02-26T04:56:07.353Z,32.02
2023-02-26T04:58:33.832Z,31.87
2023-02-26T05:01:04.069Z,31.85
2023-02-26T05:03:30.116Z,31.68
2023-02-26T05:05:56.794Z,31.59
2023-02-26T05:08:22.974Z,31.30
2023-02-26T05:10:51.679Z,31.44
2023-02-26T05:13:18.951Z,31.42
2023-02-26T05:15:45.566Z,31.48
2023-02-26T05:18:11.977Z,31.15
2023-02-26T05:20:38.242Z,31.11
2023-02-26T05:23:04.408Z,31.01
2023-02-26T05:25:30.571Z,31.15
2023-02-26T05:27:56.835Z,31.15
2023-02-26T05:30:23.288Z,31.10
2023-02-26T05:32:49.591Z,31.20
2023-02-26T05:35:15.751Z,30.62
2023-02-26T05:37:41.923Z,30.31
2023-02-26T05:40:11.920Z,30.50
2023-02-26T05:42:39.227Z,30.45
2023-02-26T05:45:06.829Z,30.22
2023-02-26T05:47:34.079Z,30.33
2023-02-26T05:50:00.786Z,30.29
2023-02-26T05:52:26.936Z,29.98
2023-02-26T05:54:52.946Z,30.20
2023-02-26T05:57:19.006Z,30.29
2023-02-26T05:59:45.167Z,30.17
2023-02-26T06:02:11.290Z,30.10
2023-02-26T06:04:37.556Z,30.08
2023-02-26T06:07:03.828Z,29.76
2023-02-26T06:09:29.931Z,29.70
2023-02-26T06:11:56.118Z,29.84
2023-02-26T06:14:22.281Z,29.46
2023-02-26T06:16:48.606Z,29.24
2023-02-26T06:19:14.710Z,29.44
2023-02-26T06:21:40.774Z,29.14
2023-02-26T06:24:07.154Z,28.50
2023-02-26T06:26:33.175Z,28.71
2023-02-26T06:28:59.262Z,28.76
2023-02-26T06:31:25.507Z,28.76
2023-02-26T06:33:51.587Z,28.60
2023-02-26T06:36:17.642Z,28.25
2023-02-26T06:38:44.854Z,28.31
2023-02-26T06:41:11.478Z,28.04
2023-02-26T06:43:37.837Z,27.49
2023-02-26T06:46:04.186Z,27.63
2023-02-26T06:48:30.321Z,27.66
2023-02-26T06:50:56.438Z,27.53
2023-02-26T06:53:23.035Z,26.68
2023-02-26T06:55:51.689Z,25.76
2023-02-26T06:58:18.320Z,26.16
2023-02-26T07:00:44.773Z,26.13
2023-02-26T07:03:16.248Z,25.40
2023-02-26T07:05:43.336Z,25.30
2023-02-26T07:08:09.543Z,25.16
2023-02-26T07:10:36.603Z,25.10
2023-02-26T07:13:02.810Z,24.69
2023-02-26T07:15:29.510Z,24.66
2023-02-26T07:17:55.817Z,24.50
2023-02-26T07:20:22.271Z,24.08
2023-02-26T07:22:48.966Z,23.76
2023-02-26T07:25:15.417Z,22.77
2023-02-26T07:27:43.731Z,23.00
2023-02-26T07:30:10.814Z,22.65
2023-02-26T07:32:37.313Z,22.43
2023-02-26T07:35:04.073Z,22.56
2023-02-26T07:37:30.329Z,22.28
2023-02-26T07:39:56.404Z,21.45
2023-02-26T07:42:22.678Z,20.89
2023-02-26T07:44:50.316Z,21.87
2023-02-26T07:47:17.311Z,22.02
2023-02-26T07:49:43.443Z,21.80
2023-02-26T07:52:09.875Z,21.66
2023-02-26T07:54:36.136Z,20.88
2023-02-26T07:57:02.772Z,20.95
2023-02-26T07:59:28.898Z,21.07
2023-02-26T08:01:55.310Z,20.33
2023-02-26T08:04:21.467Z,20.47
2023-02-26T08:06:47.798Z,20.97
2023-02-26T08:09:13.982Z,21.09
2023-02-26T08:11:42.659Z,20.36
2023-02-26T08:14:10.655Z,20.76
2023-02-26T08:16:36.853Z,20.88
2023-02-26T08:19:03.129Z,21.07
2023-02-26T08:21:29.240Z,21.20
2023-02-26T08:23:55.532Z,21.18
2023-02-26T08:26:21.882Z,21.21
2023-02-26T08:28:48.310Z,21.12
2023-02-26T08:31:15.034Z,21.35
2023-02-26T08:33:41.555Z,21.40
2023-02-26T08:36:08.126Z,21.52
2023-02-26T08:38:34.395Z,21.58
2023-02-26T08:41:00.570Z,22.00
2023-02-26T08:43:26.819Z,21.73
2023-02-26T08:45:54.422Z,21.86
2023-02-26T08:48:20.581Z,22.11
2023-02-26T08:50:47.391Z,22.10
2023-02-26T08:53:14.007Z,21.69
2023-02-26T08:55:40.109Z,21.80
2023-02-26T08:58:07.390Z,22.04
2023-02-26T09:00:33.967Z,21.90
2023-02-26T09:03:00.182Z,21.81
2023-02-26T09:05:26.640Z,22.03
2023-02-26T09:07:52.749Z,22.28
2023-02-26T09:10:19.573Z,21.98
2023-02-26T09:12:46.284Z,22.06
2023-02-26T09:15:13.910Z,22.42
2023-02-26T09:17:41.164Z,22.43
2023-02-26T09:20:08.610Z,21.35
2023-02-26T09:22:35.871Z,21.35
2023-02-26T09:25:02.540Z,21.39
2023-02-26T09:27:28.732Z,21.68
2023-02-26T09:29:54.896Z,21.68
2023-02-26T09:32:21.247Z,21.52
2023-02-26T09:34:47.532Z,21.59
2023-02-26T09:37:15.871Z,21.19
2023-02-26T09:39:42.005Z,20.79
2023-02-26T09:42:33.464Z,20.31
2023-02-26T09:45:00.445Z,19.94
2023-02-26T09:47:30.723Z,19.65
2023-02-26T09:50:09.439Z,19.48
2023-02-26T09:52:38.325Z,19.63
2023-02-26T09:55:12.078Z,19.07
2023-02-26T09:57:43.622Z,18.22
2023-02-26T10:00:27.536Z,18.80
2023-02-26T10:03:22.844Z,19.48
2023-02-26T10:06:13.342Z,20.11
2023-02-26T10:09:21.560Z,20.13
2023-02-26T10:12:12.497Z,20.03
2023-02-26T10:14:54.293Z,20.33
2023-02-26T10:17:20.472Z,20.08
2023-02-26T10:19:51.123Z,20.16
2023-02-26T10:22:49.351Z,20.29
2023-02-26T10:25:21.221Z,20.21
2023-02-26T10:28:03.553Z,19.86
2023-02-26T10:30:34.183Z,19.97
2023-02-26T10:33:20.204Z,20.27
2023-02-26T10:36:04.710Z,20.25
2023-02-26T10:38:31.772Z,20.13
2023-02-26T10:41:01.573Z,20.12
2023-02-26T10:43:37.718Z,20.49
2023-02-26T10:46:32.963Z,20.71
2023-02-26T10:49:31.968Z,20.40
2023-02-26T10:52:07.936Z,20.34
2023-02-26T10:54:38.478Z,20.76
2023-02-26T10:57:08.662Z,20.87
2023-02-26T10:59:34.780Z,21.02
2023-02-26T11:02:01.025Z,20.66
2023-02-26T11:04:27.673Z,21.08
2023-02-26T11:06:59.362Z,21.13
2023-02-26T11:09:28.443Z,21.07
2023-02-26T11:12:04.025Z,21.14
2023-02-26T11:14:32.518Z,21.13
2023-02-26T11:17:04.225Z,21.25
2023-02-26T11:19:37.775Z,21.46
2023-02-26T11:22:09.064Z,21.61
2023-02-26T11:24:50.059Z,21.77
2023-02-26T11:27:21.953Z,21.81
2023-02-26T11:29:52.907Z,21.78
2023-02-26T11:32:23.093Z,22.13
2023-02-26T11:34:51.340Z,22.11
2023-02-26T11:37:23.530Z,22.22
2023-02-26T11:40:14.061Z,22.71
2023-02-26T11:42:50.263Z,22.74
2023-02-26T11:45:19.308Z,22.77
2023-02-26T11:47:48.004Z,23.10
2023-02-26T11:50:19.244Z,23.50
2023-02-26T11:52:47.971Z,23.29
2023-02-26T11:55:36.158Z,23.66
2023-02-26T11:58:14.446Z,23.90
2023-02-26T12:00:40.723Z,23.76
2023-02-26T12:03:16.890Z,23.67
2023-02-26T12:08:52.889Z,24.07
2023-02-26T12:12:03.537Z,24.01
2023-02-26T12:15:01.061Z,24.08
2023-02-26T12:17:51.806Z,24.19
2023-02-26T12:20:39.942Z,24.14
2023-02-26T12:23:28.155Z,24.62
2023-02-26T12:26:28.431Z,24.83
2023-02-26T12:29:10.561Z,25.31
2023-02-26T12:31:59.997Z,25.31
2023-02-26T12:34:45.391Z,25.55
2023-02-26T12:37:21.515Z,25.83
2023-02-26T12:40:18.391Z,26.01
2023-02-26T12:42:54.187Z,26.07
2023-02-26T12:45:39.468Z,25.77
2023-02-26T12:48:27.665Z,25.92
2023-02-26T12:51:07.293Z,26.33
2023-02-26T12:53:46.414Z,26.73
2023-02-26T12:56:16.441Z,26.76
2023-02-26T12:59:20.973Z,26.51
2023-02-26T13:02:18.178Z,26.62
2023-02-26T13:04:59.582Z,26.58
2023-02-26T13:07:37.824Z,26.56
2023-02-26T13:10:26.215Z,26.41
2023-02-26T13:13:05.395Z,26.58
2023-02-26T13:16:03.052Z,26.65
2023-02-26T13:18:54.087Z,26.79
2023-02-26T13:21:32.829Z,26.91
2023-02-26T13:24:12.357Z,26.89
2023-02-26T13:26:44.953Z,26.89
2023-02-26T13:29:24.570Z,26.84
2023-02-26T13:32:43.588Z,27.03
2023-02-26T13:35:22.983Z,27.12
2023-02-26T13:37:53.288Z,27.16
2023-02-26T13:40:22.799Z,27.21
2023-02-26T13:42:52.953Z,27.34
2023-02-26T13:46:01.124Z,27.05
2023-02-26T13:49:07.239Z,26.97
2023-02-26T13:51:44.672Z,27.25
2023-02-26T13:54:11.838Z,27.47
2023-02-26T13:56:38.731Z,27.44
2023-02-26T13:59:45.579Z,27.47
2023-02-26T14:02:44.467Z,27.58
2023-02-26T14:05:34.658Z,27.53
2023-02-26T14:08:01.551Z,27.82
2023-02-26T14:10:44.742Z,27.88
2023-02-26T14:13:19.197Z,27.79
2023-02-26T14:15:53.142Z,27.77
2023-02-26T14:18:40.204Z,27.81
2023-02-26T14:21:27.599Z,27.72
2023-02-26T14:24:02.082Z,27.79
2023-02-26T14:26:34.056Z,27.95
2023-02-26T14:29:06.915Z,28.05
2023-02-26T14:32:16.086Z,28.09
2023-02-26T14:35:00.195Z,27.98
2023-02-26T14:37:28.867Z,28.11
2023-02-26T14:40:00.779Z,28.02
2023-02-26T14:42:35.026Z,28.01
2023-02-26T14:48:16.754Z,28.27
2023-02-26T14:53:50.643Z,28.33
2023-02-26T14:56:43.962Z,28.74
2023-02-26T14:59:40.048Z,27.78
2023-02-26T15:02:33.664Z,27.55
2023-02-26T15:05:29.262Z,27.78
2023-02-26T15:08:34.684Z,28.05
2023-02-26T15:11:12.590Z,28.51
2023-02-26T15:14:00.278Z,28.81
2023-02-26T15:16:37.375Z,28.96
2023-02-26T15:19:33.246Z,29.03
2023-02-26T15:22:27.963Z,29.09
2023-02-26T15:24:55.107Z,28.75
2023-02-26T15:27:22.486Z,28.67
2023-02-26T15:29:53.477Z,29.11
2023-02-26T15:32:44.920Z,29.46
2023-02-26T15:35:18.561Z,29.92
2023-02-26T15:37:55.893Z,29.92
2023-02-26T15:40:22.740Z,29.96
2023-02-26T15:42:53.970Z,29.98
2023-02-26T15:45:28.136Z,29.99
2023-02-26T15:48:20.213Z,30.14
2023-02-26T15:50:52.875Z,30.57
2023-02-26T15:53:34.252Z,30.90
2023-02-26T15:56:04.957Z,31.12
2023-02-26T15:58:47.280Z,31.29
2023-02-26T16:01:22.350Z,31.70
2023-02-26T16:03:53.406Z,31.90
2023-02-26T16:06:33.437Z,32.11
2023-02-26T16:09:00.985Z,32.40
2023-02-26T16:11:43.110Z,32.54
2023-02-26T16:14:21.618Z,32.84
2023-02-26T16:16:57.006Z,32.91
2023-02-26T16:19:35.734Z,33.14
2023-02-26T16:22:32.190Z,33.17
2023-02-26T16:25:07.305Z,33.02
2023-02-26T16:27:35.830Z,33.06
2023-02-26T16:30:05.165Z,33.30
2023-02-26T16:32:35.352Z,33.45
2023-02-26T16:35:17.301Z,33.52
2023-02-26T16:37:50.135Z,33.71
2023-02-26T16:40:25.901Z,33.91
2023-02-26T16:43:26.951Z,33.91
2023-02-26T16:45:59.674Z,33.92
2023-02-26T16:48:29.911Z,33.99
2023-02-26T16:51:20.328Z,33.89
2023-02-26T16:54:00.178Z,34.15
2023-02-26T16:56:36.510Z,34.29
2023-02-26T16:59:19.369Z,34.23
2023-02-26T17:02:03.082Z,34.26
2023-02-26T17:04:34.483Z,34.12
2023-02-26T17:07:02.460Z,34.06
2023-02-26T17:09:29.500Z,34.06
2023-02-26T17:12:12.994Z,34.05
2023-02-26T17:14:42.905Z,34.22
2023-02-26T17:17:10.498Z,34.09
2023-02-26T17:19:37.993Z,34.30
2023-02-26T17:22:08.849Z,34.38
2023-02-26T17:24:50.524Z,34.38
2023-02-26T17:27:27.300Z,34.66
2023-02-26T17:29:54.301Z,34.61
2023-02-26T17:32:26.997Z,34.67
2023-02-26T17:34:54.685Z,34.80
2023-02-26T17:37:23.069Z,34.78
2023-02-26T17:39:49.909Z,35.02
2023-02-26T17:42:21.335Z,34.96
2023-02-26T17:44:48.887Z,35.03
2023-02-26T17:47:24.342Z,35.07
2023-02-26T17:49:51.742Z,35.13
2023-02-26T17:52:18.954Z,35.25
2023-02-26T17:54:46.213Z,35.35
2023-02-26T17:57:23.052Z,35.39
2023-02-26T17:59:50.245Z,35.42
2023-02-26T18:03:07.882Z,35.51
2023-02-26T18:15:28.401Z,35.46
2023-02-26T18:18:30.750Z,35.38
2023-02-26T19:48:55.616Z,38.88
2023-02-26T19:51:23.039Z,38.56
2023-02-26T19:53:50.548Z,38.47
2023-02-26T19:56:18.162Z,38.55
2023-02-26T19:58:45.826Z,38.71
2023-02-26T20:16:10.183Z,39.08
2023-02-26T20:18:37.902Z,39.17
2023-02-26T20:21:40.909Z,39.16
2023-02-26T20:24:00.521Z,39.40
2023-02-26T20:26:27.847Z,39.47
2023-02-26T20:28:54.705Z,39.58
2023-02-26T20:31:21.829Z,39.54
2023-02-26T20:34:29.015Z,39.91
2023-02-26T20:36:58.193Z,39.94
2023-02-26T20:39:25.189Z,39.92
2023-02-26T20:41:52.080Z,40.00
2023-02-26T20:44:21.141Z,40.12
2023-02-26T20:46:47.648Z,40.37
2023-02-26T20:49:14.185Z,40.40
2023-02-26T20:51:41.629Z,40.47
2023-02-26T20:54:09.480Z,40.61
2023-02-26T20:56:35.824Z,40.72
2023-02-26T20:59:02.143Z,40.93
2023-02-26T21:01:34.881Z,41.04
2023-02-26T21:04:05.395Z,40.94
2023-02-26T21:06:32.026Z,41.11
2023-02-26T21:08:59.796Z,41.05
2023-02-26T21:11:26.418Z,41.12
2023-02-26T21:13:52.862Z,41.21
2023-02-26T21:16:19.088Z,41.16
2023-02-26T21:18:45.541Z,41.21
2023-02-26T21:21:11.642Z,41.30
2023-02-26T21:23:37.728Z,41.22
2023-02-26T21:26:03.981Z,41.24
2023-02-26T21:28:30.224Z,41.31
2023-02-26T21:30:57.070Z,41.21
2023-02-26T21:33:23.347Z,41.26
2023-02-26T21:35:51.141Z,41.45
2023-02-26T21:38:18.556Z,41.51
2023-02-26T21:40:46.110Z,41.70
2023-02-26T21:43:12.894Z,41.72
2023-02-26T21:45:39.923Z,41.82
2023-02-26T21:48:06.086Z,41.91
2023-02-26T21:50:32.992Z,42.02
2023-02-26T21:52:59.301Z,42.25
2023-02-26T21:55:25.555Z,42.47
2023-02-26T21:57:51.685Z,42.57
2023-02-26T22:00:18.511Z,42.65
2023-02-26T22:02:44.900Z,42.49
2023-02-26T22:05:11.703Z,42.57
2023-02-26T22:07:38.533Z,42.61
2023-02-26T22:10:06.561Z,42.78
2023-02-26T22:12:33.512Z,42.86
2023-02-26T22:14:59.848Z,43.23
2023-02-26T22:17:26.048Z,43.06
2023-02-26T22:19:52.180Z,42.92
2023-02-26T22:22:18.200Z,42.84
2023-02-26T22:24:44.440Z,43.09
2023-02-26T22:27:10.927Z,43.17
2023-02-26T22:29:38.538Z,43.27
2023-02-26T22:32:06.668Z,43.21
2023-02-26T22:34:33.626Z,43.18
2023-02-26T22:37:00.915Z,43.20
2023-02-26T22:39:27.076Z,43.05
2023-02-26T22:41:53.277Z,42.64
2023-02-26T22:44:19.349Z,42.49
2023-02-26T22:46:46.723Z,42.63
2023-02-26T22:49:12.833Z,42.72
2023-02-26T22:51:39.029Z,42.76
2023-02-26T22:54:05.257Z,42.65
2023-02-26T22:56:31.796Z,42.75
2023-02-26T22:58:57.829Z,42.81
2023-02-26T23:01:24.147Z,43.06
2023-02-26T23:03:50.282Z,42.95
2023-02-26T23:06:16.499Z,43.10
2023-02-26T23:08:42.614Z,43.14
2023-02-26T23:11:08.768Z,43.11
2023-02-26T23:13:35.619Z,42.97
2023-02-26T23:16:04.483Z,43.01
2023-02-26T23:18:31.621Z,42.95
2023-02-26T23:20:57.812Z,43.07
2023-02-26T23:23:23.977Z,43.16
2023-02-26T23:25:50.189Z,43.29
2023-02-26T23:28:16.329Z,43.38
2023-02-26T23:30:42.426Z,43.36
2023-02-26T23:33:09.588Z,43.39
2023-02-26T23:35:35.707Z,43.28
2023-02-26T23:38:02.377Z,43.38
2023-02-26T23:40:29.036Z,43.50
2023-02-26T23:42:55.605Z,43.75
2023-02-26T23:45:22.256Z,43.83
2023-02-26T23:47:48.380Z,43.62
2023-02-26T23:50:14.655Z,43.92
2023-02-26T23:52:40.737Z,43.83
2023-02-26T23:55:07.471Z,44.00
2023-02-26T23:57:33.588Z,43.82
2023-02-26T23:59:59.716Z,43.73
